Time;durP1;ratioP1;P1;durP2;ratioP2;P2;SDS_P1;SDS_P2;PMS_P1;PMS_P2;Temp;Humidity;BMP_temperature;BMP_pressure;BME280_temperature;BME280_humidity;BME280_pressure;Samples;Min_cycle;Max_cycle;Signal;HPM_P1;HPM_P2
2023/03/10 00:00:47;;;;;;;1.88;1.58;;;17.60;1.00;;;;;;5093333;28;20051;-36
2023/03/10 00:03:14;;;;;;;2.75;1.70;;;17.60;1.00;;;;;;5092476;28;20214;-37
2023/03/10 00:05:40;;;;;;;2.47;1.77;;;17.60;1.00;;;;;;5093199;28;20040;-37
2023/03/10 00:08:07;;;;;;;2.35;1.65;;;17.50;1.00;;;;;;5093095;28;20042;-37
2023/03/10 00:10:34;;;;;;;1.63;1.08;;;17.50;1.00;;;;;;5093063;28;20557;-37
2023/03/10 00:13:01;;;;;;;1.92;1.30;;;17.50;1.00;;;;;;5092169;28;20032;-38
2023/03/10 00:15:28;;;;;;;2.78;1.52;;;17.40;1.00;;;;;;5093070;28;20041;-37
2023/03/10 00:17:54;;;;;;;2.50;1.38;;;17.40;1.00;;;;;;5093161;28;20492;-37
2023/03/10 00:20:22;;;;;;;1.80;1.30;;;17.40;1.00;;;;;;5093127;28;20070;-38
2023/03/10 00:22:49;;;;;;;2.00;1.50;;;17.30;1.00;;;;;;5092142;28;20044;-37
2023/03/10 00:25:16;;;;;;;2.10;1.45;;;17.30;1.00;;;;;;5092768;28;20525;-37
2023/03/10 00:27:43;;;;;;;1.85;1.45;;;17.30;1.00;;;;;;5092660;28;20044;-38
2023/03/10 00:30:10;;;;;;;2.53;1.90;;;17.20;1.00;;;;;;5092818;28;20044;-38
2023/03/10 00:32:37;;;;;;;1.75;1.23;;;17.20;1.00;;;;;;5073938;28;20553;-37
2023/03/10 00:35:05;;;;;;;1.92;1.40;;;17.10;1.00;;;;;;5122185;22;20392;-36
2023/03/10 00:37:36;;;;;;;2.55;1.60;;;17.10;1.00;;;;;;5112729;28;20071;-36
2023/03/10 00:40:09;;;;;;;2.83;1.77;;;17.10;1.00;;;;;;5112934;28;20534;-36
2023/03/10 00:42:35;;;;;;;3.55;1.48;;;17.10;1.00;;;;;;5094276;28;20040;-34
2023/03/10 00:45:03;;;;;;;2.00;1.25;;;17.00;1.00;;;;;;5094588;28;20090;-33
2023/03/10 00:47:30;;;;;;;2.30;1.40;;;17.00;1.00;;;;;;5112766;28;20042;-32
2023/03/10 00:49:57;;;;;;;2.15;1.58;;;17.00;1.00;;;;;;5094387;28;20040;-37
2023/03/10 00:52:24;;;;;;;1.75;1.30;;;16.90;1.00;;;;;;5112394;28;20161;-34
2023/03/10 00:54:52;;;;;;;1.50;1.10;;;16.90;1.00;;;;;;5094025;28;20043;-35
2023/03/10 00:57:19;;;;;;;2.22;1.33;;;16.90;1.00;;;;;;5112379;28;20055;-35
2023/03/10 00:59:50;;;;;;;1.77;1.30;;;16.80;1.00;;;;;;5094113;28;20051;-31
2023/03/10 01:02:20;;;;;;;2.38;1.48;;;16.80;1.00;;;;;;5112267;28;20470;-35
2023/03/10 01:04:47;;;;;;;1.83;1.25;;;16.80;1.00;;;;;;5093567;28;20520;-34
2023/03/10 01:07:14;;;;;;;2.35;1.50;;;16.80;1.00;;;;;;5112444;28;20039;-34
2023/03/10 01:09:41;;;;;;;2.10;1.42;;;16.70;1.00;;;;;;5094186;28;20047;-32
2023/03/10 01:12:08;;;;;;;1.25;0.90;;;16.70;1.00;;;;;;5094129;28;20491;-39
2023/03/10 01:14:35;;;;;;;1.58;1.35;;;16.70;1.00;;;;;;5111756;28;20036;-33
2023/03/10 01:17:04;;;;;;;2.28;1.38;;;16.60;1.00;;;;;;5094017;28;20155;-35
2023/03/10 01:19:30;;;;;;;2.05;1.20;;;16.60;1.00;;;;;;5094097;28;20109;-34
2023/03/10 01:21:59;;;;;;;1.73;1.20;;;16.60;1.00;;;;;;5094135;28;20056;-33
2023/03/10 01:24:26;;;;;;;2.00;1.40;;;16.50;1.00;;;;;;5111495;28;20407;-33
2023/03/10 01:26:53;;;;;;;2.50;1.55;;;16.50;1.00;;;;;;5112155;28;20421;-32
2023/03/10 01:29:20;;;;;;;2.38;1.52;;;16.50;1.00;;;;;;5094107;28;20040;-36
2023/03/10 01:31:46;;;;;;;1.90;1.30;;;16.50;1.00;;;;;;5112091;28;20108;-37
2023/03/10 01:34:13;;;;;;;2.72;1.60;;;16.50;1.00;;;;;;5111255;28;20073;-36
2023/03/10 01:36:41;;;;;;;1.67;1.10;;;16.40;1.00;;;;;;5112218;28;20461;-36
2023/03/10 01:39:08;;;;;;;1.75;1.23;;;16.40;1.00;;;;;;5112193;28;20043;-36
2023/03/10 01:41:38;;;;;;;1.88;1.60;;;16.40;1.00;;;;;;5093908;28;20040;-31
2023/03/10 01:44:11;;;;;;;1.95;1.45;;;16.40;1.00;;;;;;5093058;28;20159;-32
2023/03/10 01:46:41;;;;;;;2.75;1.83;;;16.30;1.00;;;;;;5093785;28;20040;-36
2023/03/10 01:49:29;;;;;;;1.98;1.52;;;16.30;1.00;;;;;;5093842;28;20090;-32
2023/03/10 01:52:22;;;;;;;2.10;1.40;;;16.30;1.00;;;;;;5093824;28;20043;-34
2023/03/10 01:55:14;;;;;;;2.17;1.30;;;16.30;1.00;;;;;;5111504;28;20043;-33
2023/03/10 01:57:48;;;;;;;2.42;1.33;;;16.20;1.00;;;;;;5112443;28;20042;-33
2023/03/10 02:00:15;;;;;;;2.50;1.38;;;16.20;1.00;;;;;;5093686;28;20387;-35
2023/03/10 02:03:06;;;;;;;2.38;1.63;;;16.20;1.00;;;;;;5111266;28;20044;-34
2023/03/10 02:05:37;;;;;;;1.67;1.35;;;16.20;1.00;;;;;;5093621;28;20060;-33
2023/03/10 02:08:05;;;;;;;2.45;1.60;;;16.20;1.00;;;;;;5112116;28;20047;-36
2023/03/10 02:10:32;;;;;;;2.47;1.42;;;16.10;1.00;;;;;;5111782;28;20491;-32
2023/03/10 02:12:59;;;;;;;3.05;2.25;;;16.10;1.00;;;;;;5092763;28;20047;-36
2023/03/10 02:15:25;;;;;;;2.30;1.42;;;16.10;1.00;;;;;;5094004;28;20491;-33
2023/03/10 02:17:53;;;;;;;2.38;1.65;;;16.10;1.00;;;;;;5097450;28;20051;-34
2023/03/10 02:20:26;;;;;;;3.40;2.30;;;16.00;1.00;;;;;;5097322;28;20147;-35
2023/03/10 02:22:53;;;;;;;5.22;1.85;;;16.00;1.00;;;;;;5114945;28;20149;-32
2023/03/10 02:25:45;;;;;;;2.90;1.80;;;16.00;1.00;;;;;;5115474;28;20042;-32
2023/03/10 02:28:12;;;;;;;2.47;1.42;;;15.90;1.00;;;;;;5097211;28;20562;-36
2023/03/10 02:30:46;;;;;;;2.15;1.50;;;15.90;1.00;;;;;;5097250;28;20044;-32
2023/03/10 02:33:26;;;;;;;2.17;1.48;;;15.90;1.00;;;;;;5096339;28;20085;-36
2023/03/10 02:36:04;;;;;;;3.28;1.63;;;15.90;1.00;;;;;;5097113;28;20043;-33
2023/03/10 02:38:31;;;;;;;3.85;1.65;;;15.90;1.00;;;;;;5097071;28;20051;-35
2023/03/10 02:40:57;;;;;;;2.45;1.48;;;15.80;1.00;;;;;;5096904;28;20097;-34
2023/03/10 02:43:31;;;;;;;2.35;1.52;;;15.80;1.00;;;;;;5096283;28;20552;-32
2023/03/10 02:46:25;;;;;;;1.88;1.25;;;15.80;1.00;;;;;;5111458;28;20445;-34
2023/03/10 02:48:51;;;;;;;2.58;1.40;;;15.80;1.00;;;;;;5114957;28;20040;-33
2023/03/10 02:51:26;;;;;;;;;;;15.80;1.00;;;;;;5097262;28;20044;-36
2023/03/10 02:53:56;;;;;;;2.58;1.75;;;15.70;1.00;;;;;;5096111;28;19974;-35
2023/03/10 02:56:24;;;;;;;2.17;1.50;;;15.70;1.00;;;;;;5096472;28;20050;-33
2023/03/10 02:58:51;;;;;;;2.53;1.30;;;15.70;1.00;;;;;;5096593;28;20040;-35
2023/03/10 03:01:18;;;;;;;2.33;1.80;;;15.70;1.00;;;;;;5096545;28;20074;-32
2023/03/10 03:03:45;;;;;;;2.58;1.40;;;15.70;1.00;;;;;;5095709;28;20043;-32
2023/03/10 03:06:12;;;;;;;2.42;1.83;;;15.60;1.00;;;;;;5096527;28;20093;-36
2023/03/10 03:08:40;;;;;;;2.47;1.75;;;15.60;1.00;;;;;;5096376;28;20044;-33
2023/03/10 03:11:10;;;;;;;2.55;1.75;;;15.60;1.00;;;;;;5096298;28;20059;-36
2023/03/10 03:13:37;;;;;;;2.53;1.70;;;15.60;1.00;;;;;;5113749;28;20035;-37
2023/03/10 03:16:07;;;;;;;2.38;1.50;;;15.60;1.00;;;;;;5096236;28;20043;-34
2023/03/10 03:18:34;;;;;;;2.65;1.92;;;15.60;1.00;;;;;;5096200;28;20517;-32
2023/03/10 03:21:10;;;;;;;3.40;2.05;;;15.50;1.00;;;;;;5114416;28;20123;-32
2023/03/10 03:23:38;;;;;;;3.92;2.10;;;15.50;1.00;;;;;;5113754;28;20487;-33
2023/03/10 03:26:14;;;;;;;3.25;2.00;;;15.50;1.00;;;;;;5095588;28;20052;-35
2023/03/10 03:28:41;;;;;;;2.47;1.40;;;15.50;1.00;;;;;;5095944;28;20036;-33
2023/03/10 03:31:16;;;;;;;2.72;1.80;;;15.50;1.00;;;;;;5096103;28;20051;-33
2023/03/10 03:33:45;;;;;;;3.20;1.80;;;15.50;1.00;;;;;;5095202;28;20071;-33
2023/03/10 03:36:12;;;;;;;2.72;1.80;;;15.40;1.00;;;;;;5096032;28;20075;-36
2023/03/10 03:38:40;;;;;;;3.03;1.88;;;15.40;1.00;;;;;;5095720;28;20456;-34
2023/03/10 03:41:07;;;;;;;2.25;1.67;;;15.40;1.00;;;;;;5095730;28;20566;-32
2023/03/10 03:43:36;;;;;;;3.97;2.08;;;15.40;1.00;;;;;;5094838;28;20426;-35
2023/03/10 03:46:03;;;;;;;2.33;1.85;;;15.40;1.00;;;;;;5095798;28;20499;-33
2023/03/10 03:48:33;;;;;;;2.92;2.13;;;15.30;1.00;;;;;;5095520;28;20444;-34
2023/03/10 03:51:02;;;;;;;2.35;1.83;;;15.30;1.00;;;;;;5095514;28;20048;-37
2023/03/10 03:53:35;;;;;;;3.28;2.28;;;15.30;1.00;;;;;;5094740;28;20059;-35
2023/03/10 03:56:03;;;;;;;2.58;1.77;;;15.30;1.00;;;;;;5095672;28;20138;-35
2023/03/10 03:58:32;;;;;;;3.05;1.98;;;15.30;1.00;;;;;;5095474;28;20514;-34
2023/03/10 04:00:59;;;;;;;3.25;2.15;;;15.30;1.00;;;;;;5095306;28;20050;-32
2023/03/10 04:03:30;;;;;;;2.38;1.80;;;15.30;1.00;;;;;;5094561;28;20047;-33
2023/03/10 04:05:57;;;;;;;2.42;1.67;;;15.20;1.00;;;;;;5094205;28;20043;-36
2023/03/10 04:08:24;;;;;;;2.70;2.05;;;15.20;1.00;;;;;;5095229;28;20437;-35
2023/03/10 04:10:53;;;;;;;2.53;1.52;;;15.20;1.00;;;;;;5092663;28;20498;-34
2023/03/10 04:13:24;;;;;;;2.92;2.20;;;15.20;1.00;;;;;;5112486;28;20065;-31
2023/03/10 04:15:57;;;;;;;3.22;1.70;;;15.20;1.00;;;;;;5103438;28;20052;-38
2023/03/10 04:18:30;;;;;;;3.30;1.70;;;15.20;1.00;;;;;;5095529;28;20108;-32
2023/03/10 04:20:57;;;;;;;2.13;1.55;;;15.10;1.00;;;;;;5098961;28;20051;-33
2023/03/10 04:23:25;;;;;;;1.60;1.35;;;15.10;1.00;;;;;;5094217;28;20124;-34
2023/03/10 04:25:52;;;;;;;1.98;1.60;;;15.10;1.00;;;;;;5095018;28;20418;-33
2023/03/10 04:28:19;;;;;;;3.00;1.35;;;15.10;1.00;;;;;;5094886;28;20127;-32
2023/03/10 04:30:48;;;;;;;2.15;1.77;;;15.10;1.00;;;;;;5094719;28;20056;-32
2023/03/10 04:33:17;;;;;;;1.77;1.33;;;15.10;1.00;;;;;;5093961;28;20562;-35
2023/03/10 04:35:50;;;;;;;2.22;1.27;;;15.10;1.00;;;;;;5094808;28;20044;-35
2023/03/10 04:38:18;;;;;;;3.13;2.10;;;15.00;1.00;;;;;;5112414;28;20047;-32
2023/03/10 04:40:52;;;;;;;2.05;1.75;;;15.00;1.00;;;;;;5094564;28;20503;-32
2023/03/10 04:43:20;;;;;;;2.53;2.00;;;15.00;1.00;;;;;;5093658;28;20108;-33
2023/03/10 04:45:47;;;;;;;2.03;1.40;;;15.00;1.00;;;;;;5094687;28;20039;-32
2023/03/10 04:48:14;;;;;;;2.17;1.48;;;15.00;1.00;;;;;;5094566;28;20036;-31
2023/03/10 04:50:41;;;;;;;2.67;1.55;;;15.00;1.00;;;;;;5094584;28;20044;-31
2023/03/10 04:53:09;;;;;;;2.45;1.67;;;14.90;1.00;;;;;;5093621;28;20546;-32
2023/03/10 04:55:37;;;;;;;2.00;1.67;;;14.90;1.00;;;;;;5077738;28;20039;-31
2023/03/10 04:58:04;;;;;;;3.55;1.80;;;14.90;1.00;;;;;;5094170;28;20478;-31
2023/03/10 05:00:32;;;;;;;2.38;1.83;;;14.90;1.00;;;;;;5094249;28;20417;-32
2023/03/10 05:02:59;;;;;;;1.73;1.63;;;14.90;1.00;;;;;;5093654;28;20594;-32
2023/03/10 05:05:26;;;;;;;1.60;1.20;;;14.90;1.00;;;;;;5094185;28;20071;-33
2023/03/10 05:07:53;;;;;;;2.75;1.65;;;14.90;1.00;;;;;;5094078;28;20047;-33
2023/03/10 05:10:20;;;;;;;1.65;1.33;;;14.90;1.00;;;;;;5112358;28;20071;-31
2023/03/10 05:12:46;;;;;;;2.35;1.55;;;14.90;1.00;;;;;;5093577;28;20039;-35
2023/03/10 05:15:13;;;;;;;2.33;1.20;;;14.80;1.00;;;;;;5094093;28;20044;-34
2023/03/10 05:17:40;;;;;;;1.92;1.20;;;14.80;1.00;;;;;;5094045;28;20407;-32
2023/03/10 05:20:09;;;;;;;3.08;1.70;;;14.80;1.00;;;;;;5094061;28;20070;-36
2023/03/10 05:22:37;;;;;;;4.18;2.13;;;14.80;1.00;;;;;;5093516;28;20465;-36
2023/03/10 05:25:08;;;;;;;3.17;1.77;;;14.80;1.00;;;;;;5093799;28;20071;-33
2023/03/10 05:27:37;;;;;;;2.45;1.83;;;14.80;1.00;;;;;;5094150;28;20039;-34
2023/03/10 05:30:06;;;;;;;3.30;1.80;;;14.80;1.00;;;;;;5094040;28;20067;-34
2023/03/10 05:32:35;;;;;;;2.92;1.60;;;14.80;1.00;;;;;;5093701;28;20043;-34
2023/03/10 05:35:03;;;;;;;2.88;1.40;;;14.80;1.00;;;;;;5093512;28;20048;-31
2023/03/10 05:37:38;;;;;;;2.35;1.40;;;14.80;1.00;;;;;;5093728;28;20575;-37
2023/03/10 05:40:08;;;;;;;3.10;1.70;;;14.90;1.00;;;;;;5093970;28;20048;-34
2023/03/10 05:42:35;;;;;;;1.92;1.17;;;14.90;1.00;;;;;;5076891;28;20139;-33
2023/03/10 05:45:04;;;;;;;2.58;1.67;;;15.00;1.00;;;;;;5093773;28;20054;-39
2023/03/10 05:47:32;;;;;;;2.70;1.42;;;15.10;1.00;;;;;;5112149;28;20498;-33
2023/03/10 05:50:01;;;;;;;2.53;1.80;;;15.20;1.00;;;;;;5095720;28;20058;-35
2023/03/10 05:52:28;;;;;;;1.88;1.17;;;15.30;1.00;;;;;;5097608;28;20414;-32
2023/03/10 05:54:55;;;;;;;3.00;1.85;;;15.40;1.00;;;;;;5097609;28;20065;-35
2023/03/10 05:57:22;;;;;;;2.78;1.63;;;15.50;1.00;;;;;;5097917;28;20055;-32
2023/03/10 05:59:49;;;;;;;1.98;1.20;;;15.50;1.00;;;;;;5097531;28;20134;-31
2023/03/10 06:02:16;;;;;;;2.10;1.65;;;15.60;1.00;;;;;;5115601;28;20417;-32
2023/03/10 06:04:43;;;;;;;3.38;1.30;;;15.60;1.00;;;;;;5115502;28;20055;-32
2023/03/10 06:07:10;;;;;;;2.40;1.30;;;15.60;1.00;;;;;;5116018;28;20047;-33
2023/03/10 06:09:36;;;;;;;2.72;1.65;;;15.70;1.00;;;;;;5115813;28;20491;-33
2023/03/10 06:12:03;;;;;;;2.85;1.48;;;15.70;1.00;;;;;;5115902;28;20043;-32
2023/03/10 06:14:30;;;;;;;2.47;1.70;;;15.80;1.00;;;;;;5115019;28;20101;-34
2023/03/10 06:16:57;;;;;;;1.50;1.15;;;15.80;1.00;;;;;;5115833;28;20158;-34
2023/03/10 06:19:26;;;;;;;2.00;1.40;;;15.80;1.00;;;;;;5115911;28;20041;-35
2023/03/10 06:21:52;;;;;;;2.47;1.50;;;15.80;1.00;;;;;;5115707;28;20115;-34
2023/03/10 06:24:19;;;;;;;2.00;1.70;;;15.80;1.00;;;;;;5114979;28;20047;-35
2023/03/10 06:26:46;;;;;;;1.52;1.25;;;15.80;1.00;;;;;;5115479;28;20039;-33
2023/03/10 06:29:13;;;;;;;1.92;1.50;;;15.80;1.00;;;;;;5115518;28;20544;-36
2023/03/10 06:31:39;;;;;;;4.65;1.85;;;15.80;1.00;;;;;;5115389;28;20070;-36
2023/03/10 06:34:06;;;;;;;3.45;1.27;;;15.80;1.00;;;;;;5114324;28;20078;-34
2023/03/10 06:36:33;;;;;;;3.42;1.60;;;15.70;1.00;;;;;;5115273;28;20479;-34
2023/03/10 06:39:00;;;;;;;3.67;1.92;;;15.70;1.00;;;;;;5115159;28;20047;-35
2023/03/10 06:41:27;;;;;;;2.10;1.48;;;15.70;1.00;;;;;;5106327;28;20047;-34
2023/03/10 06:43:53;;;;;;;3.33;1.73;;;15.70;1.00;;;;;;5090453;28;20483;-36
2023/03/10 06:46:20;;;;;;;2.95;1.75;;;15.70;1.00;;;;;;5110393;28;20047;-33
2023/03/10 06:48:48;;;;;;;3.28;1.83;;;15.70;1.00;;;;;;5114902;28;20036;-37
2023/03/10 06:51:18;;;;;;;6.22;1.67;;;15.70;1.00;;;;;;5115063;28;20042;-35
2023/03/10 06:53:46;;;;;;;3.20;1.67;;;15.70;1.00;;;;;;5097039;28;20039;-36
2023/03/10 06:56:15;;;;;;;10.65;2.10;;;15.60;1.00;;;;;;5112575;28;20398;-34
2023/03/10 06:58:43;;;;;;;2.95;1.80;;;15.60;1.00;;;;;;5114514;28;20043;-35
2023/03/10 07:01:39;;;;;;;3.88;2.25;;;15.60;1.00;;;;;;5094691;28;20568;-34
2023/03/10 07:04:06;;;;;;;6.32;2.25;;;15.60;1.00;;;;;;5078346;28;20414;-32
2023/03/10 07:06:33;;;;;;;14.82;2.65;;;15.60;1.00;;;;;;5100974;28;20055;-35
2023/03/10 07:08:59;;;;;;;11.93;2.75;;;15.50;1.00;;;;;;5095893;28;20650;-32
2023/03/10 07:11:26;;;;;;;4.68;2.55;;;15.50;1.00;;;;;;5097285;28;20128;-35
2023/03/10 07:13:53;;;;;;;5.40;2.70;;;15.60;1.00;;;;;;5101052;28;20035;-35
2023/03/10 07:16:21;;;;;;;4.68;2.80;;;15.70;1.00;;;;;;5095468;28;20040;-32
2023/03/10 07:18:48;;;;;;;6.47;2.92;;;15.80;1.00;;;;;;5094363;28;20040;-34
2023/03/10 07:21:18;;;;;;;6.03;3.47;;;15.90;1.00;;;;;;5114354;28;20040;-37
2023/03/10 07:23:45;;;;;;;6.45;3.63;;;16.10;1.00;;;;;;5113361;28;20044;-34
2023/03/10 07:26:14;;;;;;;4.82;3.22;;;16.20;1.00;;;;;;5113451;28;20043;-39
2023/03/10 07:28:41;;;;;;;6.95;3.22;;;16.30;1.00;;;;;;5104455;28;20118;-33
2023/03/10 07:31:10;;;;;;;6.45;3.22;;;16.30;1.00;;;;;;5113893;28;20084;-33
2023/03/10 07:33:37;;;;;;;10.35;2.97;;;16.30;1.00;;;;;;5113162;28;20031;-36
2023/03/10 07:36:06;;;;;;;5.50;2.97;;;16.30;1.00;;;;;;5113952;28;20032;-31
2023/03/10 07:38:33;;;;;;;7.57;3.53;;;16.30;1.00;;;;;;5107514;28;20036;-32
2023/03/10 07:41:00;;;;;;;5.47;3.25;;;16.30;1.00;;;;;;5111604;28;20039;-37
2023/03/10 07:43:27;;;;;;;8.52;3.20;;;16.30;1.00;;;;;;5113055;28;20039;-34
2023/03/10 07:45:54;;;;;;;11.43;3.72;;;16.40;1.00;;;;;;5113854;28;20097;-34
2023/03/10 07:48:21;;;;;;;7.47;3.33;;;16.40;1.00;;;;;;5113610;28;20074;-33
2023/03/10 07:50:56;;;;;;;9.35;3.80;;;16.40;1.00;;;;;;5113668;28;20032;-32
2023/03/10 07:53:23;;;;;;;9.73;5.18;;;16.50;1.00;;;;;;5080966;28;20046;-34
2023/03/10 07:55:50;;;;;;;10.73;4.25;;;16.50;1.00;;;;;;5095412;28;20039;-33
2023/03/10 07:58:17;;;;;;;12.68;4.88;;;16.50;1.00;;;;;;5113639;28;20046;-36
2023/03/10 08:00:44;;;;;;;12.27;4.22;;;16.50;1.00;;;;;;5113698;28;20499;-33
2023/03/10 08:03:11;;;;;;;11.15;3.50;;;16.50;1.00;;;;;;5112724;28;20126;-36
2023/03/10 08:05:42;;;;;;;20.55;5.15;;;16.60;1.00;;;;;;5107783;28;20047;-33
2023/03/10 08:08:09;;;;;;;7.60;4.75;;;16.60;1.00;;;;;;5105042;28;20044;-36
2023/03/10 08:10:38;;;;;;;7.20;4.95;;;16.50;1.00;;;;;;5104528;28;20473;-36
2023/03/10 08:13:05;;;;;;;10.57;4.93;;;16.50;1.00;;;;;;5101133;28;20505;-35
2023/03/10 08:15:31;;;;;;;8.15;4.43;;;16.50;1.00;;;;;;5109707;28;20635;-35
2023/03/10 08:18:00;;;;;;;10.25;5.00;;;16.50;1.00;;;;;;5113106;28;20042;-33
2023/03/10 08:20:27;;;;;;;6.82;4.53;;;16.60;1.00;;;;;;5113300;28;20130;-36
2023/03/10 08:22:54;;;;;;;7.30;4.60;;;16.70;1.00;;;;;;5104122;28;20052;-39
2023/03/10 08:25:21;;;;;;;7.88;4.63;;;16.80;1.00;;;;;;5102837;28;20046;-35
2023/03/10 08:27:49;;;;;;;6.72;4.30;;;16.80;1.00;;;;;;5105198;28;20114;-33
2023/03/10 08:30:16;;;;;;;8.07;4.15;;;16.80;1.00;;;;;;5110295;28;20506;-35
2023/03/10 08:32:42;;;;;;;6.70;3.63;;;16.80;1.00;;;;;;5100305;28;20039;-37
2023/03/10 08:35:10;;;;;;;7.25;3.78;;;16.80;1.00;;;;;;5102443;28;20140;-36
2023/03/10 08:37:36;;;;;;;9.57;3.40;;;16.80;1.00;;;;;;5105294;28;20483;-34
2023/03/10 08:40:06;;;;;;;6.75;4.15;;;16.90;1.00;;;;;;5113012;28;20069;-36
2023/03/10 08:42:36;;;;;;;6.45;3.58;;;16.90;1.00;;;;;;5112532;28;20134;-35
2023/03/10 08:45:06;;;;;;;5.10;3.40;;;16.90;1.00;;;;;;5112558;28;20131;-35
2023/03/10 08:47:35;;;;;;;7.63;3.42;;;16.90;1.00;;;;;;5113005;28;20044;-36
2023/03/10 08:50:03;;;;;;;6.47;3.78;;;16.90;1.00;;;;;;5112961;28;20135;-37
2023/03/10 08:52:31;;;;;;;5.68;2.67;;;16.90;1.00;;;;;;5092520;28;20089;-34
2023/03/10 08:54:58;;;;;;;5.70;3.33;;;17.00;1.00;;;;;;5112420;28;20039;-32
2023/03/10 08:57:25;;;;;;;5.63;3.05;;;17.00;1.00;;;;;;5112288;28;20043;-35
2023/03/10 08:59:52;;;;;;;4.13;3.13;;;17.00;1.00;;;;;;5112570;28;20121;-35
2023/03/10 09:02:20;;;;;;;4.78;2.90;;;17.00;1.00;;;;;;5112280;28;20043;-33
2023/03/10 09:04:49;;;;;;;7.88;3.30;;;17.10;1.00;;;;;;5106548;28;20044;-38
2023/03/10 09:07:16;;;;;;;8.60;3.03;;;17.10;1.00;;;;;;5111038;28;20063;-36
2023/03/10 09:09:43;;;;;;;5.40;3.05;;;17.10;1.00;;;;;;5108662;28;20063;-35
2023/03/10 09:12:10;;;;;;;7.43;2.90;;;17.00;1.00;;;;;;5111874;28;20039;-34
2023/03/10 09:14:37;;;;;;;5.65;2.83;;;17.00;1.00;;;;;;5107734;28;20038;-34
2023/03/10 09:17:04;;;;;;;5.60;3.25;;;17.00;1.00;;;;;;5112021;28;20047;-36
2023/03/10 09:19:31;;;;;;;5.13;2.80;;;17.00;1.00;;;;;;5112381;28;20043;-34
2023/03/10 09:21:58;;;;;;;6.53;2.95;;;17.00;1.00;;;;;;5112070;28;20075;-35
2023/03/10 09:24:25;;;;;;;6.53;2.67;;;17.00;1.00;;;;;;5111601;28;20036;-32
2023/03/10 09:26:52;;;;;;;8.02;3.03;;;17.00;1.00;;;;;;5112170;28;20108;-33
2023/03/10 09:29:18;;;;;;;8.48;3.13;;;17.00;1.00;;;;;;5112367;28;20071;-37
2023/03/10 09:31:55;;;;;;;7.30;2.65;;;17.00;1.00;;;;;;5103443;28;20046;-34
2023/03/10 09:34:25;;;;;;;3.88;2.40;;;17.00;1.00;;;;;;5111296;28;20043;-35
2023/03/10 09:36:52;;;;;;;4.72;2.63;;;17.00;1.00;;;;;;5109780;28;20036;-34
2023/03/10 09:39:19;;;;;;;3.15;2.03;;;16.90;1.00;;;;;;5110637;28;20383;-34
2023/03/10 09:42:10;;;;;;;7.13;2.30;;;16.90;1.00;;;;;;5112013;28;20039;-33
2023/03/10 09:44:45;;;;;;;4.55;2.28;;;16.90;1.00;;;;;;5086702;28;20047;-35
2023/03/10 09:47:22;;;;;;;7.28;2.40;;;16.90;1.00;;;;;;5102571;28;20039;-36
2023/03/10 09:50:14;;;;;;;4.55;2.22;;;16.90;1.00;;;;;;5108910;28;20399;-37
2023/03/10 09:52:45;;;;;;;5.40;2.33;;;16.90;1.00;;;;;;5103762;28;20032;-36
2023/03/10 09:55:41;;;;;;;5.55;2.13;;;16.90;1.00;;;;;;5103261;28;20449;-32
2023/03/10 09:58:34;;;;;;;3.70;1.88;;;17.00;1.00;;;;;;5105413;28;20035;-36
2023/03/10 10:01:04;;;;;;;3.85;2.05;;;16.90;1.00;;;;;;5098289;28;20040;-36
2023/03/10 10:03:43;;;;;;;4.80;2.05;;;16.90;1.00;;;;;;5101688;28;20092;-35
2023/03/10 10:06:25;;;;;;;4.97;2.63;;;17.00;1.00;;;;;;5104326;28;20035;-36
2023/03/10 10:09:02;;;;;;;10.88;2.08;;;17.00;1.00;;;;;;5104982;28;20032;-32
2023/03/10 10:11:32;;;;;;;6.32;2.53;;;17.00;1.00;;;;;;5102496;28;20384;-35
2023/03/10 10:14:17;;;;;;;6.25;2.75;;;17.00;1.00;;;;;;5100372;28;20040;-36
2023/03/10 10:17:08;;;;;;;7.82;3.03;;;16.90;1.00;;;;;;5101598;28;20088;-33
2023/03/10 10:19:38;;;;;;;7.40;2.47;;;16.90;1.00;;;;;;5100754;28;20036;-33
2023/03/10 10:22:27;;;;;;;4.43;2.50;;;16.80;1.00;;;;;;5108268;28;20031;-35
2023/03/10 10:24:54;;;;;;;6.18;1.80;;;16.80;1.00;;;;;;5111311;28;20044;-35
2023/03/10 10:27:21;;;;;;;4.75;2.40;;;16.80;1.00;;;;;;5107987;28;20048;-36
2023/03/10 10:29:51;;;;;;;6.22;2.42;;;16.70;1.00;;;;;;5111331;28;20399;-35
2023/03/10 10:32:17;;;;;;;4.07;2.15;;;16.70;1.00;;;;;;5110970;28;20081;-36
2023/03/10 10:34:45;;;;;;;7.07;2.55;;;16.70;1.00;;;;;;5101600;28;20553;-32
2023/03/10 10:37:41;;;;;;;3.38;2.05;;;16.60;1.00;;;;;;5109126;28;20053;-35
2023/03/10 10:40:23;;;;;;;4.28;1.90;;;16.60;1.00;;;;;;5103250;28;20115;-35
2023/03/10 10:42:55;;;;;;;5.10;1.98;;;16.60;1.00;;;;;;5111433;28;20563;-36
2023/03/10 10:45:32;;;;;;;4.22;2.30;;;16.50;1.00;;;;;;5114658;28;20134;-33
2023/03/10 10:47:59;;;;;;;4.45;2.05;;;16.50;1.00;;;;;;5114973;28;20546;-39
2023/03/10 10:50:26;;;;;;;3.80;2.28;;;16.40;1.00;;;;;;5115271;28;20410;-32
2023/03/10 10:53:15;;;;;;;5.93;2.03;;;16.40;1.00;;;;;;5114248;28;20498;-35
2023/03/10 10:55:44;;;;;;;4.32;2.00;;;16.40;1.00;;;;;;5114974;28;20078;-35
2023/03/10 10:58:44;;;;;;;3.78;1.83;;;16.30;1.00;;;;;;5114717;28;20122;-32
2023/03/10 11:01:14;;;;;;;5.53;1.58;;;16.30;1.00;;;;;;5114847;28;20039;-36
2023/03/10 11:03:47;;;;;;;3.47;1.55;;;16.20;1.00;;;;;;5111834;28;20040;-35
2023/03/10 11:06:17;;;;;;;3.95;1.92;;;16.20;1.00;;;;;;5114628;28;20062;-34
2023/03/10 11:08:49;;;;;;;2.50;1.38;;;16.20;1.00;;;;;;5114438;28;20449;-33
2023/03/10 11:11:37;;;;;;;5.43;1.80;;;16.20;1.00;;;;;;5111371;28;20032;-35
2023/03/10 11:14:42;;;;;;;3.40;1.58;;;16.10;1.00;;;;;;5104621;28;20032;-32
2023/03/10 11:17:51;;;;;;;6.65;2.28;;;16.10;1.00;;;;;;5102830;28;20077;-32
2023/03/10 11:20:48;;;;;;;6.93;1.65;;;16.00;1.00;;;;;;5091629;28;20067;-33
2023/03/10 11:23:39;;;;;;;4.90;2.08;;;16.00;1.00;;;;;;5104443;28;20051;-34
2023/03/10 11:26:25;;;;;;;3.58;1.75;;;15.90;1.00;;;;;;5114281;28;20086;-36
2023/03/10 11:29:15;;;;;;;4.47;1.63;;;15.90;1.00;;;;;;5113471;28;20122;-34
2023/03/10 11:32:01;;;;;;;4.10;1.40;;;15.80;1.00;;;;;;5099762;28;20461;-36
2023/03/10 11:34:37;;;;;;;4.03;2.22;;;15.80;1.00;;;;;;5113358;28;20040;-34
2023/03/10 11:37:28;;;;;;;3.10;1.70;;;15.80;1.00;;;;;;5114148;28;20036;-34
2023/03/10 11:40:20;;;;;;;4.40;1.83;;;15.70;1.00;;;;;;5113824;28;20043;-32
2023/03/10 11:43:12;;;;;;;3.92;1.92;;;15.70;1.00;;;;;;5113489;28;20417;-32
2023/03/10 11:45:53;;;;;;;3.80;1.92;;;15.60;1.00;;;;;;5114016;28;20047;-37
2023/03/10 11:48:40;;;;;;;4.57;1.73;;;15.60;1.00;;;;;;5113569;28;20047;-36
2023/03/10 11:51:25;;;;;;;4.63;1.58;;;15.60;1.00;;;;;;5113987;28;20051;-34
2023/03/10 11:53:54;;;;;;;5.28;2.25;;;15.60;1.00;;;;;;5112978;28;20055;-33
2023/03/10 11:56:23;;;;;;;2.83;1.60;;;15.50;1.00;;;;;;5113701;28;20075;-32
2023/03/10 11:58:55;;;;;;;4.05;1.60;;;15.50;1.00;;;;;;5113648;28;20120;-36
2023/03/10 12:01:37;;;;;;;4.88;2.20;;;15.50;1.00;;;;;;5113703;28;20043;-33
2023/03/10 12:04:32;;;;;;;2.08;1.20;;;15.40;1.00;;;;;;5112957;28;20126;-33
2023/03/10 12:07:18;;;;;;;6.20;1.25;;;15.40;1.00;;;;;;5113515;28;20093;-38
2023/03/10 12:09:49;;;;;;;3.75;2.08;;;15.40;1.00;;;;;;5113505;28;20047;-36
2023/03/10 12:12:22;;;;;;;5.13;1.65;;;15.40;1.00;;;;;;5113037;28;20097;-32
2023/03/10 12:14:53;;;;;;;3.45;1.75;;;15.30;1.00;;;;;;5113197;28;20036;-33
2023/03/10 12:17:20;;;;;;;2.42;1.55;;;15.30;1.00;;;;;;5113396;28;20089;-33
2023/03/10 12:20:17;;;;;;;3.00;1.45;;;15.30;1.00;;;;;;5113270;28;20043;-34
2023/03/10 12:22:53;;;;;;;3.72;2.15;;;15.30;1.00;;;;;;5112674;28;20067;-34
2023/03/10 12:25:28;;;;;;;3.78;1.85;;;15.20;1.00;;;;;;5113168;28;20126;-31
2023/03/10 12:28:17;;;;;;;2.70;1.50;;;15.20;1.00;;;;;;5113100;28;20047;-31
2023/03/10 12:31:02;;;;;;;2.42;1.42;;;15.20;1.00;;;;;;5094959;28;20138;-33
2023/03/10 12:36:45;;;;;;;3.70;1.88;;;15.10;1.00;;;;;;4991320;28;20054;-39
2023/03/10 12:39:38;;;;;;;2.42;1.77;;;15.10;1.00;;;;;;4993272;28;20080;-39
2023/03/10 12:42:26;;;;;;;2.92;1.35;;;15.10;1.00;;;;;;4992904;28;20494;-38
2023/03/10 12:45:29;;;;;;;3.83;1.20;;;15.10;1.00;;;;;;5001508;28;20116;-39
2023/03/10 12:48:09;;;;;;;4.95;1.70;;;15.00;1.00;;;;;;4971225;28;20122;-39
2023/03/10 12:50:53;;;;;;;3.50;1.60;;;15.00;1.00;;;;;;5008484;28;20054;-39
2023/03/10 12:53:44;;;;;;;4.07;2.13;;;15.00;1.00;;;;;;5011752;28;20038;-38
2023/03/10 12:56:11;;;;;;;2.85;1.65;;;15.00;1.00;;;;;;5012472;28;20049;-39
2023/03/10 12:58:42;;;;;;;4.05;1.23;;;15.00;1.00;;;;;;5012228;28;20080;-38
2023/03/10 13:01:16;;;;;;;2.65;1.50;;;14.90;1.00;;;;;;5012020;28;20111;-39
2023/03/10 13:03:42;;;;;;;4.40;1.75;;;14.90;1.00;;;;;;5011585;28;20053;-38
2023/03/10 13:06:09;;;;;;;3.53;1.42;;;14.90;1.00;;;;;;5012478;28;20482;-39
2023/03/10 13:08:46;;;;;;;4.35;1.63;;;14.90;1.00;;;;;;5012282;28;20045;-38
2023/03/10 13:11:24;;;;;;;4.03;1.60;;;14.90;1.00;;;;;;5012198;28;20120;-39
2023/03/10 13:13:56;;;;;;;3.08;1.80;;;14.90;1.00;;;;;;5011376;28;20034;-38
2023/03/10 13:16:22;;;;;;;3.45;1.30;;;14.80;1.00;;;;;;5012461;28;20488;-39
2023/03/10 13:18:51;;;;;;;1.55;1.25;;;14.80;1.00;;;;;;5012159;28;20052;-39
2023/03/10 13:21:23;;;;;;;2.70;1.33;;;14.80;1.00;;;;;;5012126;28;20498;-39
2023/03/10 13:23:50;;;;;;;2.75;1.48;;;14.80;1.00;;;;;;5011183;28;20100;-39